Time;durP1;ratioP1;P1;durP2;ratioP2;P2;SDS_P1;SDS_P2;PMS_P1;PMS_P2;Temp;Humidity;BMP_temperature;BMP_pressure;BME280_temperature;BME280_humidity;BME280_pressure;Samples;Min_cycle;Max_cycle;Signal;HPM_P1;HPM_P2
2022/05/17 00:00:51;;;;;;;1.80;1.40;;;;;;;13.17;78.39;101779.41;5029729;28;20249;-47
2022/05/17 00:03:17;;;;;;;2.83;1.50;;;;;;;12.99;78.81;101780.91;5029788;28;20160;-52
2022/05/17 00:05:44;;;;;;;2.92;1.55;;;;;;;13.15;78.43;101773.22;5029906;28;20247;-48
2022/05/17 00:08:10;;;;;;;2.35;1.33;;;;;;;13.32;78.27;101772.66;5029944;28;20188;-45
2022/05/17 00:10:37;;;;;;;4.30;1.40;;;;;;;13.39;78.01;101784.97;5029915;28;20226;-48
2022/05/17 00:13:03;;;;;;;2.65;1.30;;;;;;;13.32;77.86;101783.44;5029547;28;20164;-45
2022/05/17 00:15:29;;;;;;;2.90;1.60;;;;;;;13.24;77.93;101787.28;5029944;28;20307;-46
2022/05/17 00:17:55;;;;;;;4.32;1.10;;;;;;;13.26;77.87;101780.03;5028744;28;20294;-48
2022/05/17 00:20:21;;;;;;;2.00;1.15;;;;;;;13.32;77.68;101780.75;5029573;28;20658;-50
2022/05/17 00:22:47;;;;;;;3.58;1.05;;;;;;;13.22;78.37;101779.25;5029844;28;20183;-49
2022/05/17 00:25:15;;;;;;;4.00;1.48;;;;;;;13.20;78.80;101786.50;5029270;28;20222;-49
2022/05/17 00:27:40;;;;;;;1.73;1.00;;;;;;;13.11;80.27;101778.75;5029637;28;20783;-47
2022/05/17 00:30:07;;;;;;;2.55;1.40;;;;;;;12.91;81.79;101793.72;5029590;28;20329;-47
2022/05/17 00:32:33;;;;;;;4.88;1.45;;;;;;;13.05;82.26;101798.66;5029652;28;20242;-49
2022/05/17 00:34:58;;;;;;;4.20;1.48;;;;;;;13.01;82.62;101790.72;5029211;28;20314;-47
2022/05/17 00:37:24;;;;;;;2.88;1.25;;;;;;;12.92;82.54;101787.44;5029507;28;20176;-46
2022/05/17 00:39:49;;;;;;;4.32;1.40;;;;;;;13.00;81.88;101784.47;5029721;28;20260;-49
2022/05/17 00:42:15;;;;;;;3.17;1.60;;;;;;;13.06;81.42;101791.47;5029390;28;20200;-49
2022/05/17 00:44:43;;;;;;;2.97;1.15;;;;;;;13.19;80.84;101784.75;5028878;28;20172;-48
2022/05/17 00:47:26;;;;;;;2.22;1.25;;;;;;;12.96;82.22;101791.75;5029611;28;20180;-48
2022/05/17 00:50:01;;;;;;;2.42;1.20;;;;;;;12.98;82.36;101792.59;5029591;28;20184;-49
2022/05/17 00:52:31;;;;;;;2.92;1.55;;;;;;;12.98;82.62;101784.53;5029743;28;20225;-48
2022/05/17 00:55:03;;;;;;;3.33;1.33;;;;;;;12.92;82.69;101789.22;5027711;28;20250;-48
2022/05/17 00:57:40;;;;;;;4.82;1.60;;;;;;;12.73;83.76;101791.66;5031681;28;20176;-49
2022/05/17 01:00:12;;;;;;;2.55;1.40;;;;;;;12.81;84.22;101789.56;5033325;28;20184;-49
2022/05/17 01:02:50;;;;;;;3.35;1.10;;;;;;;12.83;84.31;101790.41;5033262;28;20308;-47
2022/05/17 01:05:17;;;;;;;5.40;1.75;;;;;;;12.78;84.29;101793.25;5032684;28;20258;-49
2022/05/17 01:07:47;;;;;;;2.33;1.42;;;;;;;12.87;83.68;101801.94;5032963;28;20839;-49
2022/05/17 01:10:13;;;;;;;2.63;1.20;;;;;;;12.89;83.26;101779.44;5033201;28;20192;-49
2022/05/17 01:12:40;;;;;;;2.15;1.45;;;;;;;12.91;83.29;101787.47;5033119;28;20199;-49
2022/05/17 01:15:09;;;;;;;4.10;1.30;;;;;;;12.84;83.24;101781.41;5032382;28;20599;-46
2022/05/17 01:17:36;;;;;;;3.22;1.70;;;;;;;12.77;83.79;101785.25;5032936;28;20588;-49
2022/05/17 01:20:06;;;;;;;3.60;1.30;;;;;;;12.85;83.67;101785.84;5032816;28;20191;-47
2022/05/17 01:22:31;;;;;;;2.95;1.70;;;;;;;12.77;83.61;101778.06;5032862;28;20192;-47
2022/05/17 01:24:57;;;;;;;2.40;1.58;;;;;;;12.77;83.95;101774.50;5032344;28;20234;-49
2022/05/17 01:27:38;;;;;;;5.43;1.77;;;;;;;12.76;84.49;101767.34;5032301;28;20610;-48
2022/05/17 01:30:05;;;;;;;2.72;1.45;;;;;;;12.56;85.49;101767.97;5032440;28;20215;-49
2022/05/17 01:32:31;;;;;;;2.95;1.73;;;;;;;12.52;86.57;101763.63;5032342;28;20199;-49
2022/05/17 01:34:56;;;;;;;3.55;1.90;;;;;;;12.36;86.81;101769.47;5031740;28;20212;-47
2022/05/17 01:37:21;;;;;;;5.03;1.95;;;;;;;12.43;86.66;101756.72;5032328;28;20207;-49
2022/05/17 01:39:47;;;;;;;3.40;1.95;;;;;;;12.52;87.18;101752.88;5032168;28;20183;-48
2022/05/17 01:42:14;;;;;;;3.05;2.00;;;;;;;12.32;87.82;101749.00;5032372;28;20192;-49
2022/05/17 01:44:43;;;;;;;4.70;2.10;;;;;;;12.33;88.44;101748.09;5031572;28;20203;-49
2022/05/17 01:47:10;;;;;;;3.75;1.98;;;;;;;12.30;88.84;101748.16;5032338;28;20639;-48
2022/05/17 01:49:35;;;;;;;7.05;2.33;;;;;;;12.29;88.73;101742.84;5032347;28;20595;-49
2022/05/17 01:52:00;;;;;;;4.47;1.80;;;;;;;12.33;88.76;101741.81;5031906;28;20232;-49
2022/05/17 01:54:26;;;;;;;3.03;1.80;;;;;;;12.34;89.75;101739.06;5030209;28;20279;-50
2022/05/17 01:56:51;;;;;;;4.90;2.00;;;;;;;12.35;90.31;101734.56;5032135;28;20168;-48
2022/05/17 01:59:17;;;;;;;4.57;2.00;;;;;;;12.43;90.07;101745.97;5022781;28;20259;-50
2022/05/17 02:01:42;;;;;;;2.33;2.00;;;;;;;12.12;90.97;101748.72;5009074;28;20330;-49
2022/05/17 02:04:08;;;;;;;3.13;2.40;;;;;;;12.04;91.89;101735.50;5011142;28;20232;-49
2022/05/17 02:06:33;;;;;;;3.67;2.47;;;;;;;11.97;92.60;101743.81;5011905;28;20189;-50
2022/05/17 02:08:59;;;;;;;6.78;2.75;;;;;;;11.84;93.27;101736.06;5009041;28;20184;-48
2022/05/17 02:11:24;;;;;;;3.40;2.47;;;;;;;11.92;93.80;101742.13;5025288;28;20678;-49
2022/05/17 02:13:49;;;;;;;5.43;2.40;;;;;;;11.95;93.79;101728.59;5030349;28;20229;-47
2022/05/17 02:16:15;;;;;;;4.90;2.90;;;;;;;11.81;94.31;101729.94;5031021;28;20219;-50
2022/05/17 02:18:41;;;;;;;5.00;2.78;;;;;;;11.89;94.02;101727.91;5031692;28;20168;-52
2022/05/17 02:21:06;;;;;;;6.25;3.10;;;;;;;11.78;94.37;101720.13;5014671;28;20207;-48
2022/05/17 02:23:32;;;;;;;3.83;2.72;;;;;;;11.70;95.15;101724.88;5011231;28;20188;-50
2022/05/17 02:25:58;;;;;;;5.68;2.65;;;;;;;11.67;95.74;101722.25;5011780;28;20279;-50
2022/05/17 02:28:23;;;;;;;5.28;2.65;;;;;;;11.60;95.49;101705.44;5011115;28;20655;-48
2022/05/17 02:30:49;;;;;;;5.53;2.60;;;;;;;11.65;96.00;101716.03;5011545;28;20664;-49
2022/05/17 02:33:15;;;;;;;8.63;2.65;;;;;;;11.51;95.98;101711.94;5011121;28;20649;-48
2022/05/17 02:35:42;;;;;;;4.63;2.80;;;;;;;11.54;95.92;101709.19;5011428;28;20306;-48
2022/05/17 02:38:08;;;;;;;3.38;2.42;;;;;;;11.69;95.74;101712.34;5011607;28;20555;-49
2022/05/17 02:40:34;;;;;;;4.13;2.70;;;;;;;11.57;95.72;101712.69;5011256;28;20185;-49
2022/05/17 02:43:00;;;;;;;3.35;2.60;;;;;;;11.49;96.27;101720.97;5010448;28;20180;-49
2022/05/17 02:45:25;;;;;;;3.55;2.55;;;;;;;11.39;96.38;101725.72;5009678;28;20176;-49
2022/05/17 02:47:52;;;;;;;7.90;2.92;;;;;;;11.42;96.59;101731.00;5011179;28;20180;-51
2022/05/17 02:50:18;;;;;;;5.57;2.67;;;;;;;11.57;96.81;101718.06;5011004;28;20200;-50
2022/05/17 02:52:44;;;;;;;4.40;2.22;;;;;;;11.65;97.07;101740.19;5010755;28;20191;-50
2022/05/17 02:55:10;;;;;;;4.10;2.40;;;;;;;11.58;96.54;101735.94;5010391;28;20196;-49
2022/05/17 02:57:36;;;;;;;6.13;2.60;;;;;;;11.58;96.19;101734.13;5010758;28;20176;-51
2022/05/17 03:00:07;;;;;;;3.63;2.35;;;;;;;11.50;96.83;101737.03;5010623;28;20557;-51
2022/05/17 03:02:32;;;;;;;5.45;2.78;;;;;;;11.49;97.00;101731.69;5010947;28;20203;-49
2022/05/17 03:04:58;;;;;;;5.63;2.92;;;;;;;11.57;97.40;101728.78;5010206;28;20184;-47
2022/05/17 03:07:23;;;;;;;5.32;2.38;;;;;;;11.58;97.38;101738.63;5010743;28;20224;-49
2022/05/17 03:09:49;;;;;;;4.25;2.65;;;;;;;11.50;97.70;101742.41;5009431;28;20220;-48
2022/05/17 03:12:14;;;;;;;8.52;3.00;;;;;;;11.48;98.52;101754.09;5010161;28;20288;-46
2022/05/17 03:14:40;;;;;;;5.97;2.90;;;;;;;11.44;99.44;101758.66;5010339;28;20205;-49
2022/05/17 03:17:13;;;;;;;6.25;2.90;;;;;;;11.54;99.99;101753.91;5010564;28;20260;-47
2022/05/17 03:19:39;;;;;;;5.60;2.50;;;;;;;11.52;100.00;101753.97;5009768;28;20681;-46
2022/05/17 03:22:04;;;;;;;7.72;2.88;;;;;;;11.48;100.00;101756.78;5009737;28;20192;-47
2022/05/17 03:24:31;;;;;;;4.75;2.70;;;;;;;11.49;100.00;101762.09;5009679;28;20185;-50
2022/05/17 03:26:57;;;;;;;6.05;3.03;;;;;;;11.59;100.00;101764.50;5010155;28;20176;-48
2022/05/17 03:29:23;;;;;;;9.88;2.67;;;;;;;11.47;100.00;101760.38;5010190;28;20177;-49
2022/05/17 03:31:48;;;;;;;4.95;2.83;;;;;;;11.48;100.00;101760.34;5010202;28;20702;-48
2022/05/17 03:34:13;;;;;;;7.35;3.13;;;;;;;11.51;100.00;101757.56;5010021;28;20184;-50
2022/05/17 03:36:39;;;;;;;5.10;2.92;;;;;;;11.48;100.00;101760.34;5010149;28;20185;-48
2022/05/17 03:39:04;;;;;;;10.07;3.10;;;;;;;11.50;100.00;101758.50;5008826;28;20180;-49
2022/05/17 03:41:29;;;;;;;4.03;2.40;;;;;;;11.58;100.00;101749.34;5009944;28;20196;-46
2022/05/17 03:43:55;;;;;;;5.20;2.83;;;;;;;11.53;100.00;101760.22;5009688;28;20176;-48
2022/05/17 03:46:20;;;;;;;6.28;2.80;;;;;;;11.65;100.00;101767.03;5010005;28;20188;-45
2022/05/17 03:48:46;;;;;;;4.53;2.72;;;;;;;11.61;100.00;101766.25;5009898;28;20203;-46
2022/05/17 03:51:17;;;;;;;5.75;2.72;;;;;;;11.38;100.00;101776.72;5009574;28;20675;-47
2022/05/17 03:53:44;;;;;;;6.32;2.72;;;;;;;11.52;100.00;101770.09;5009453;28;20194;-49
2022/05/17 03:56:11;;;;;;;5.60;2.80;;;;;;;11.55;100.00;101761.94;5009661;28;20219;-47
2022/05/17 03:58:37;;;;;;;5.13;2.65;;;;;;;11.64;100.00;101776.03;5010404;28;20208;-45
2022/05/17 04:01:03;;;;;;;5.07;2.55;;;;;;;11.56;100.00;101773.53;5008121;28;20586;-46
2022/05/17 04:03:29;;;;;;;8.80;3.00;;;;;;;11.60;100.00;101769.84;5009910;28;20188;-48
2022/05/17 04:05:54;;;;;;;3.45;2.33;;;;;;;11.69;100.00;101774.97;5010069;28;20265;-47
2022/05/17 04:08:20;;;;;;;3.67;2.70;;;;;;;11.72;100.00;101774.03;5008190;28;20294;-47
2022/05/17 04:10:45;;;;;;;6.05;2.90;;;;;;;11.74;100.00;101769.47;5009786;28;20596;-47
2022/05/17 04:13:11;;;;;;;4.13;2.53;;;;;;;11.62;100.00;101773.38;5009262;28;20204;-46
2022/05/17 04:15:36;;;;;;;4.05;2.72;;;;;;;11.55;100.00;101775.34;5010073;28;20200;-48
2022/05/17 04:18:02;;;;;;;5.70;3.00;;;;;;;11.48;100.00;101775.56;5009774;28;20191;-47
2022/05/17 04:20:28;;;;;;;5.90;3.50;;;;;;;11.41;100.00;101774.81;5020476;28;20264;-47
2022/05/17 04:22:54;;;;;;;5.95;2.90;;;;;;;11.48;100.00;101784.50;5029398;28;20180;-45
2022/05/17 04:25:23;;;;;;;6.10;3.53;;;;;;;11.49;100.00;101780.00;5028935;28;20167;-45
2022/05/17 04:27:49;;;;;;;8.38;3.63;;;;;;;11.46;100.00;101791.72;5029703;28;20184;-46
2022/05/17 04:30:16;;;;;;;5.80;3.17;;;;;;;11.64;100.00;101781.41;5029590;28;20264;-48
2022/05/17 04:32:46;;;;;;;7.82;3.30;;;;;;;11.69;100.00;101785.69;5030488;28;20230;-46
2022/05/17 04:35:13;;;;;;;6.50;3.05;;;;;;;11.69;100.00;101793.75;5032984;28;20246;-45
2022/05/17 04:37:38;;;;;;;7.55;2.83;;;;;;;11.70;100.00;101791.97;5033160;28;20175;-47
2022/05/17 04:40:08;;;;;;;7.68;2.90;;;;;;;11.75;100.00;101792.72;5033377;28;20238;-46
2022/05/17 04:42:36;;;;;;;6.95;3.25;;;;;;;11.86;100.00;101801.34;5033277;28;20196;-47
2022/05/17 04:45:03;;;;;;;4.03;2.78;;;;;;;11.98;100.00;101804.66;5032541;28;20184;-47
2022/05/17 04:47:29;;;;;;;3.88;2.90;;;;;;;11.96;100.00;101810.09;5033348;28;20176;-47
2022/05/17 04:49:55;;;;;;;5.43;2.97;;;;;;;11.91;100.00;101809.31;5032981;28;20176;-47
2022/05/17 04:52:23;;;;;;;5.10;2.85;;;;;;;11.93;100.00;101816.38;5031707;28;20203;-48
2022/05/17 04:54:49;;;;;;;4.25;2.50;;;;;;;11.82;100.00;101817.59;5032538;28;20230;-47
2022/05/17 04:57:15;;;;;;;5.13;2.97;;;;;;;11.70;100.00;101818.81;5032800;28;20184;-48
2022/05/17 04:59:40;;;;;;;6.00;3.33;;;;;;;11.72;100.00;101814.28;5032972;28;20176;-46
2022/05/17 05:02:06;;;;;;;4.80;2.90;;;;;;;11.88;100.00;101815.66;5032616;28;20199;-47
2022/05/17 05:04:31;;;;;;;6.78;3.05;;;;;;;11.92;100.00;101825.38;5031005;28;20324;-47
2022/05/17 05:06:57;;;;;;;4.13;3.05;;;;;;;12.04;100.00;101826.84;5031376;28;20925;-46
2022/05/17 05:09:22;;;;;;;5.38;2.50;;;;;;;12.14;100.00;101828.34;5032590;28;20187;-48
2022/05/17 05:11:47;;;;;;;3.65;2.80;;;;;;;12.13;100.00;101836.44;5032754;28;20195;-47
2022/05/17 05:14:13;;;;;;;4.25;2.53;;;;;;;12.06;100.00;101829.47;5032095;28;20255;-46
2022/05/17 05:16:38;;;;;;;4.25;3.05;;;;;;;12.21;100.00;101825.47;5031044;28;20204;-47
2022/05/17 05:19:04;;;;;;;4.40;2.50;;;;;;;12.29;100.00;101827.03;5032631;28;20184;-46
2022/05/17 05:21:30;;;;;;;5.13;3.50;;;;;;;12.26;100.00;101821.72;5032013;28;20204;-47
2022/05/17 05:23:55;;;;;;;5.55;3.13;;;;;;;12.28;100.00;101825.25;5032142;28;20242;-46
2022/05/17 05:26:21;;;;;;;5.85;3.03;;;;;;;12.31;100.00;101824.28;5032493;28;20175;-47
2022/05/17 05:28:46;;;;;;;4.43;2.67;;;;;;;12.49;100.00;101821.03;5032403;28;20202;-47
2022/05/17 05:31:13;;;;;;;6.28;2.72;;;;;;;12.41;99.39;101820.38;5032377;28;20282;-46
2022/05/17 05:33:39;;;;;;;7.65;2.83;;;;;;;12.47;99.35;101827.41;5031547;28;20180;-46
2022/05/17 05:36:05;;;;;;;7.50;2.92;;;;;;;12.59;98.79;101835.06;5032014;28;20330;-47
2022/05/17 05:38:30;;;;;;;4.72;2.75;;;;;;;12.61;97.50;101827.84;5031888;28;20218;-46
2022/05/17 05:40:56;;;;;;;3.38;2.25;;;;;;;12.70;97.17;101824.00;5032515;28;20666;-47
2022/05/17 05:43:25;;;;;;;4.32;2.85;;;;;;;12.70;96.54;101838.34;5029312;28;20204;-48
2022/05/17 05:45:50;;;;;;;3.45;2.53;;;;;;;12.78;96.35;101841.66;5031843;28;20187;-46
2022/05/17 05:48:15;;;;;;;4.72;2.63;;;;;;;12.78;96.09;101835.41;5032143;28;20172;-47
2022/05/17 05:50:41;;;;;;;4.63;2.60;;;;;;;12.71;95.83;101834.72;5031628;28;20258;-46
2022/05/17 05:53:10;;;;;;;6.90;3.20;;;;;;;12.51;95.97;101843.38;5029055;28;20568;-46
2022/05/17 05:55:37;;;;;;;6.28;3.15;;;;;;;12.52;96.42;101849.63;5011701;28;20213;-46
2022/05/17 05:58:06;;;;;;;4.35;2.50;;;;;;;12.74;96.89;101849.88;5010936;28;20260;-47
2022/05/17 06:00:33;;;;;;;7.00;3.13;;;;;;;12.63;96.22;101849.31;5011918;28;20195;-46
2022/05/17 06:02:58;;;;;;;6.68;3.05;;;;;;;12.77;96.27;101845.28;5010629;28;20599;-48
2022/05/17 06:05:25;;;;;;;6.35;3.10;;;;;;;12.61;96.24;101853.84;5011869;28;20168;-45
2022/05/17 06:07:52;;;;;;;6.45;2.70;;;;;;;12.43;96.24;101858.84;5011901;28;20189;-48
2022/05/17 06:10:19;;;;;;;6.20;3.00;;;;;;;12.37;96.88;101864.41;5011815;28;20246;-46
2022/05/17 06:12:44;;;;;;;10.32;3.10;;;;;;;12.44;96.92;101857.03;5011909;28;20263;-48
2022/05/17 06:15:10;;;;;;;8.57;2.92;;;;;;;12.44;96.95;101862.41;5011107;28;20296;-48
2022/05/17 06:17:38;;;;;;;4.07;2.92;;;;;;;12.51;96.61;101864.91;5010563;28;20184;-43
2022/05/17 06:20:05;;;;;;;5.97;3.10;;;;;;;12.58;96.38;101868.28;5011688;28;20173;-44
2022/05/17 06:22:30;;;;;;;7.43;2.83;;;;;;;12.64;96.05;101869.88;5010386;28;20546;-44
2022/05/17 06:24:55;;;;;;;8.20;3.05;;;;;;;12.71;95.56;101872.34;5012087;28;20256;-44
2022/05/17 06:27:21;;;;;;;6.45;2.90;;;;;;;12.77;94.43;101876.69;5009921;28;20165;-44
2022/05/17 06:29:46;;;;;;;6.28;3.10;;;;;;;12.76;94.64;101883.84;5011889;28;20260;-44
2022/05/17 06:32:14;;;;;;;9.85;3.00;;;;;;;12.85;94.36;101868.34;5010055;28;20683;-42
2022/05/17 06:34:41;;;;;;;6.07;2.92;;;;;;;12.98;93.30;101877.81;5011515;28;20203;-43
2022/05/17 06:37:07;;;;;;;4.53;2.50;;;;;;;13.08;92.55;101873.03;5011702;28;20185;-47
2022/05/17 06:39:33;;;;;;;5.85;2.80;;;;;;;13.13;91.77;101880.00;5011461;28;20540;-47
2022/05/17 06:41:59;;;;;;;5.47;2.85;;;;;;;13.19;91.77;101887.88;5011720;28;20196;-43
2022/05/17 06:44:27;;;;;;;9.07;3.03;;;;;;;13.10;91.36;101885.50;5011701;28;20544;-43
2022/05/17 06:46:54;;;;;;;7.13;2.60;;;;;;;13.12;91.22;101899.78;5011431;28;20516;-46
2022/05/17 06:49:20;;;;;;;6.95;2.92;;;;;;;13.08;91.05;101897.25;5011224;28;20247;-45
2022/05/17 06:51:46;;;;;;;5.20;2.58;;;;;;;13.01;91.17;101896.56;5011013;28;20279;-46
2022/05/17 06:54:11;;;;;;;10.35;2.72;;;;;;;13.04;91.51;101903.66;5011388;28;20576;-46
2022/05/17 06:56:36;;;;;;;4.85;2.60;;;;;;;13.08;91.57;101900.81;5011433;28;20192;-41
2022/05/17 06:59:03;;;;;;;7.20;2.90;;;;;;;13.08;91.69;101897.25;5011490;28;20608;-44
2022/05/17 07:01:28;;;;;;;4.93;2.70;;;;;;;13.11;92.01;101886.38;5011027;28;20197;-45
2022/05/17 07:03:54;;;;;;;7.63;2.90;;;;;;;13.44;91.69;101897.00;5011070;28;20163;-47
2022/05/17 07:06:21;;;;;;;5.78;3.03;;;;;;;13.60;90.50;101898.28;5011132;28;20173;-44
2022/05/17 07:08:47;;;;;;;12.85;3.25;;;;;;;13.67;89.96;101888.16;5011306;28;20176;-43
2022/05/17 07:13:58;;;;;;;6.43;2.80;;;;;;;13.87;88.24;101893.72;5011005;28;20242;-43
2022/05/17 07:16:24;;;;;;;7.53;2.70;;;;;;;14.07;87.24;101900.25;5010676;28;20659;-44
2022/05/17 07:18:50;;;;;;;5.55;2.40;;;;;;;14.08;86.26;101893.91;5011097;28;20657;-43
2022/05/17 07:21:15;;;;;;;7.10;2.55;;;;;;;14.29;85.01;101889.56;5009395;28;20185;-46
2022/05/17 07:23:42;;;;;;;4.13;2.60;;;;;;;14.41;83.42;101891.81;5010637;28;20245;-48
2022/05/17 07:26:12;;;;;;;5.50;2.50;;;;;;;14.76;82.82;101893.19;5011205;28;20219;-45
2022/05/17 07:28:46;;;;;;;10.32;2.20;;;;;;;15.18;80.92;101887.03;5010684;28;20763;-45
2022/05/17 07:31:12;;;;;;;4.30;2.30;;;;;;;15.24;79.21;101894.88;5010581;28;20211;-44
2022/05/17 07:33:40;;;;;;;6.15;2.40;;;;;;;15.27;79.48;101896.56;5010636;28;20165;-44
2022/05/17 07:36:06;;;;;;;7.18;2.50;;;;;;;14.92;79.94;101895.28;5010160;28;20561;-45
2022/05/17 07:38:33;;;;;;;7.90;2.42;;;;;;;15.25;79.67;101896.63;5009357;28;20235;-46
2022/05/17 07:40:58;;;;;;;7.25;2.35;;;;;;;14.93;79.34;101891.63;5010351;28;20188;-44
2022/05/17 07:43:24;;;;;;;4.85;2.10;;;;;;;15.29;78.75;101896.53;5010699;28;20175;-43
2022/05/17 07:45:50;;;;;;;5.00;2.10;;;;;;;15.16;77.61;101894.31;5009965;28;20161;-45
2022/05/17 07:48:19;;;;;;;7.18;2.33;;;;;;;14.93;78.64;101900.59;5010286;28;20161;-45
2022/05/17 07:50:45;;;;;;;6.13;1.92;;;;;;;15.08;79.75;101907.22;5009208;28;20283;-44
2022/05/17 07:53:12;;;;;;;3.78;2.13;;;;;;;14.81;79.23;101915.47;5010471;28;20670;-45
2022/05/17 07:55:39;;;;;;;4.78;2.03;;;;;;;14.65;79.73;101913.41;5009836;28;20334;-47
2022/05/17 07:58:05;;;;;;;7.93;2.20;;;;;;;14.52;82.60;101916.56;5009076;28;20176;-44
2022/05/17 08:00:32;;;;;;;3.90;2.13;;;;;;;14.77;82.43;101921.91;5009464;28;20176;-44
2022/05/17 08:02:59;;;;;;;5.40;2.38;;;;;;;14.70;81.43;101923.09;5009957;28;20199;-43
2022/05/17 08:05:26;;;;;;;4.93;2.15;;;;;;;14.71;82.44;101930.25;5010458;28;20168;-44
2022/05/17 08:07:52;;;;;;;4.10;2.55;;;;;;;14.89;82.13;101933.16;5012668;28;20650;-46
2022/05/17 08:10:18;;;;;;;5.03;2.00;;;;;;;14.93;81.03;101935.69;5014377;28;20160;-44
2022/05/17 08:12:44;;;;;;;72.10;9.93;;;;;;;14.64;82.86;101939.50;5014278;28;20215;-44
2022/05/17 08:15:10;;;;;;;7.68;2.70;;;;;;;14.84;82.51;101933.34;5014075;28;20204;-43
2022/05/17 08:17:36;;;;;;;7.85;2.78;;;;;;;14.90;83.59;101937.66;5014402;28;20539;-44
2022/05/17 08:20:02;;;;;;;5.20;2.15;;;;;;;15.00;83.25;101937.22;5012785;28;20168;-42
2022/05/17 08:22:28;;;;;;;8.10;2.35;;;;;;;14.91;83.06;101928.59;5014300;28;20195;-44
2022/05/17 08:27:37;;;;;;;9.07;2.00;;;;;;;14.53;83.56;101923.69;5013466;28;20200;-44
2022/05/17 08:30:08;;;;;;;7.70;2.00;;;;;;;14.67;84.84;101936.72;5014056;28;20632;-45
2022/05/17 08:35:18;;;;;;;4.38;2.30;;;;;;;14.85;84.55;101929.72;5013763;28;20687;-45
2022/05/17 08:37:43;;;;;;;5.60;2.28;;;;;;;14.91;84.55;101937.59;5013347;28;20184;-51
2022/05/17 08:40:18;;;;;;;6.35;2.10;;;;;;;14.56;85.54;101941.59;5012055;28;20204;-43
2022/05/17 08:42:53;;;;;;;4.63;1.80;;;;;;;14.49;86.79;101951.69;5010599;28;20192;-44
2022/05/17 08:45:29;;;;;;;6.60;2.08;;;;;;;14.68;86.78;101946.56;4994202;28;20177;-44
2022/05/17 08:47:57;;;;;;;5.18;1.73;;;;;;;14.86;85.95;101952.19;5002471;28;20176;-44
2022/05/17 08:50:26;;;;;;;4.82;2.55;;;;;;;14.91;85.15;101936.69;5013272;28;20331;-44
2022/05/17 08:52:53;;;;;;;5.28;2.15;;;;;;;14.93;85.20;101948.31;5013264;28;20185;-44
2022/05/17 08:55:38;;;;;;;15.27;2.92;;;;;;;14.69;85.06;101956.38;5012968;28;20638;-43
2022/05/17 08:58:21;;;;;;;9.15;2.25;;;;;;;14.83;85.93;101955.88;4993158;28;20177;-44
2022/05/17 09:01:14;;;;;;;6.50;2.30;;;;;;;15.16;86.16;101952.81;4993209;28;20226;-46
2022/05/17 09:03:56;;;;;;;6.32;1.92;;;;;;;15.18;84.59;101962.63;4992980;28;20165;-43
2022/05/17 09:10:49;;;;;;;4.85;2.10;;;;;;;15.22;83.03;101958.84;5029943;28;20789;-44
2022/05/17 09:13:25;;;;;;;22.10;3.42;;;;;;;15.37;83.96;101961.88;4992256;28;20872;-44
2022/05/17 09:19:31;;;;;;;4.03;1.83;;;;;;;15.78;81.74;101946.69;5010177;28;20183;-42
2022/05/17 09:22:00;;;;;;;5.80;2.17;;;;;;;15.66;82.68;101948.06;5011985;28;20208;-43
2022/05/17 09:28:18;;;;;;;5.40;2.30;;;;;;;16.16;81.08;101954.09;5011388;28;20654;-45
2022/05/17 09:30:44;;;;;;;7.68;2.15;;;;;;;16.09;81.17;101949.91;5029879;28;20238;-45
2022/05/17 09:33:12;;;;;;;8.18;2.55;;;;;;;16.37;80.47;101955.00;5032065;28;20655;-42
2022/05/17 09:36:05;;;;;;;5.63;2.35;;;;;;;16.17;78.58;101959.44;5030901;28;20671;-50
2022/05/17 09:38:35;;;;;;;4.97;2.30;;;;;;;16.26;78.43;101964.44;4992569;28;20672;-42
2022/05/17 09:41:05;;;;;;;7.35;2.20;;;;;;;16.58;77.10;101961.28;4992790;28;20276;-43
2022/05/17 09:43:39;;;;;;;4.78;2.50;;;;;;;16.35;75.95;101973.97;4992560;28;20161;-47
2022/05/17 09:46:29;;;;;;;4.18;2.10;;;;;;;16.14;76.72;101972.25;4992926;28;20256;-44
2022/05/17 09:54:48;;;;;;;4.50;2.38;;;;;;;16.22;76.47;101991.69;4992880;28;20204;-43
2022/05/17 09:57:25;;;;;;;6.15;2.13;;;;;;;16.35;77.56;101984.81;4992031;28;20166;-43
2022/05/17 10:00:08;;;;;;;5.50;2.13;;;;;;;16.52;76.70;101996.72;4992779;28;20227;-47
2022/05/17 10:02:49;;;;;;;5.63;2.50;;;;;;;16.30;77.17;101996.78;4992313;28;20680;-46
2022/05/17 10:05:27;;;;;;;5.45;2.60;;;;;;;16.02;77.15;101998.84;4992769;28;20636;-45
2022/05/17 10:08:00;;;;;;;5.43;2.13;;;;;;;16.07;78.32;101995.97;4992403;28;20260;-43
2022/05/17 10:10:36;;;;;;;7.90;2.90;;;;;;;16.15;77.11;101995.63;4991352;28;20169;-44
2022/05/17 10:13:27;;;;;;;6.35;3.00;;;;;;;16.04;77.71;101996.94;4992104;28;20230;-47
2022/05/17 10:16:01;;;;;;;4.15;2.40;;;;;;;16.26;77.96;101996.91;4992442;28;20255;-45
2022/05/17 10:18:35;;;;;;;5.32;2.45;;;;;;;16.39;77.56;101997.25;4992367;28;20247;-45
2022/05/17 10:21:17;;;;;;;4.13;2.55;;;;;;;16.28;77.25;101996.84;4992094;28;20610;-46
2022/05/17 10:23:46;;;;;;;5.35;2.40;;;;;;;15.98;77.45;101996.31;4992524;28;20176;-46
2022/05/17 10:26:17;;;;;;;6.63;2.53;;;;;;;15.91;78.30;101995.72;4992059;28;20180;-44
2022/05/17 10:28:52;;;;;;;4.30;2.90;;;;;;;15.95;77.69;101997.34;4992096;28;20606;-46
2022/05/17 10:31:30;;;;;;;4.03;2.10;;;;;;;15.94;78.13;101994.69;4991370;28;20193;-48
2022/05/17 10:34:09;;;;;;;4.43;2.15;;;;;;;15.99;78.72;102004.38;4991785;28;20300;-46
2022/05/17 10:36:43;;;;;;;4.20;1.85;;;;;;;15.88;77.76;102001.25;4991833;28;20196;-45
2022/05/17 10:39:38;;;;;;;6.28;2.25;;;;;;;16.06;75.25;102007.69;4992148;28;20172;-44
2022/05/17 10:42:04;;;;;;;6.53;2.67;;;;;;;16.02;74.54;102012.34;4991832;28;20209;-42
2022/05/17 10:44:58;;;;;;;5.22;2.40;;;;;;;15.82;75.67;102015.88;4991542;28;20181;-44
2022/05/17 10:47:46;;;;;;;4.82;2.55;;;;;;;15.89;76.08;102013.81;4990435;28;20200;-45
2022/05/17 10:50:24;;;;;;;6.40;2.88;;;;;;;15.62;76.62;102013.09;4991626;28;20154;-43
2022/05/17 10:53:06;;;;;;;4.82;2.33;;;;;;;15.57;77.56;102013.28;4991598;28;20284;-45
2022/05/17 10:55:49;;;;;;;3.70;2.15;;;;;;;15.91;78.02;102014.63;4990199;28;20181;-45
2022/05/17 10:59:09;;;;;;;4.50;2.22;;;;;;;15.82;77.47;102010.47;5018016;28;20631;-42
2022/05/17 11:01:57;;;;;;;6.63;2.63;;;;;;;15.85;77.66;102006.75;5000973;28;20640;-43
2022/05/17 11:04:57;;;;;;;6.78;2.65;;;;;;;15.87;78.18;102010.28;5030801;28;20633;-43
2022/05/17 11:07:41;;;;;;;5.57;2.85;;;;;;;15.73;79.21;102007.28;5030420;28;20176;-45
2022/05/17 11:10:35;;;;;;;6.47;2.80;;;;;;;15.73;79.58;102015.41;4999817;28;20218;-45
2022/05/17 11:13:20;;;;;;;6.07;2.88;;;;;;;15.92;80.69;102007.38;5030525;28;20179;-46
2022/05/17 11:15:58;;;;;;;7.22;2.53;;;;;;;15.70;80.32;102021.78;5030466;28;20180;-44
2022/05/17 11:18:50;;;;;;;4.50;2.90;;;;;;;15.71;81.16;102011.84;5015693;28;20173;-46
2022/05/17 11:21:34;;;;;;;9.57;3.00;;;;;;;15.68;80.56;102025.47;5016115;28;20569;-43
2022/05/17 11:24:18;;;;;;;5.55;2.70;;;;;;;15.65;80.83;102019.28;5030125;28;20183;-46
2022/05/17 11:27:00;;;;;;;8.98;3.05;;;;;;;15.55;80.67;102028.69;5026190;28;20169;-42
2022/05/17 11:30:00;;;;;;;10.25;2.80;;;;;;;15.64;81.08;102016.63;5010419;28;20592;-44
2022/05/17 11:32:30;;;;;;;7.13;2.50;;;;;;;15.79;80.94;102034.06;5009105;28;20204;-45
2022/05/17 11:34:58;;;;;;;6.00;2.38;;;;;;;16.15;81.02;102018.13;5022995;28;20215;-43
2022/05/17 11:37:32;;;;;;;6.85;2.72;;;;;;;16.05;80.65;102033.00;5029972;28;20200;-44
2022/05/17 11:40:07;;;;;;;4.90;2.50;;;;;;;16.09;78.88;102029.19;5030432;28;20194;-43
2022/05/17 11:45:49;;;;;;;8.10;2.90;;;;;;;16.24;78.61;102031.25;5030379;28;20172;-45
2022/05/17 11:48:17;;;;;;;3.15;2.10;;;;;;;16.36;78.85;102026.28;5030079;28;20228;-47
2022/05/17 11:50:51;;;;;;;7.05;2.65;;;;;;;16.42;77.36;102024.19;5029534;28;20220;-44
2022/05/17 11:53:22;;;;;;;9.20;2.67;;;;;;;16.23;77.70;102028.63;5010344;28;20521;-43
2022/05/17 11:56:15;;;;;;;9.40;2.70;;;;;;;15.93;78.35;102033.50;5009052;28;20204;-43
2022/05/17 11:58:43;;;;;;;7.30;2.75;;;;;;;16.03;79.11;102026.78;5010415;28;20161;-44
2022/05/17 12:01:26;;;;;;;5.10;2.85;;;;;;;16.42;79.58;102028.69;5010010;28;20264;-43
2022/05/17 12:03:56;;;;;;;5.35;2.70;;;;;;;16.24;78.90;102033.94;5010417;28;20226;-47